sensor_id;sensor_type;location;lat;lon;timestamp;P1;durP1;ratioP1;P2;durP2;ratioP2
69323;SDS011;56470;47.350;8.718;2022-07-29T00:01:59;3.30;;;1.87;;
69323;SDS011;56470;47.350;8.718;2022-07-29T00:04:24;2.28;;;1.40;;
69323;SDS011;56470;47.350;8.718;2022-07-29T00:06:49;3.83;;;1.70;;
69323;SDS011;56470;47.350;8.718;2022-07-29T00:09:15;3.07;;;1.90;;
69323;SDS011;56470;47.350;8.718;2022-07-29T00:11:40;4.17;;;1.73;;
69323;SDS011;56470;47.350;8.718;2022-07-29T00:14:06;3.47;;;1.65;;
69323;SDS011;56470;47.350;8.718;2022-07-29T00:16:31;3.80;;;1.60;;
69323;SDS011;56470;47.350;8.718;2022-07-29T00:18:56;3.13;;;1.73;;
69323;SDS011;56470;47.350;8.718;2022-07-29T00:21:22;3.37;;;1.50;;
69323;SDS011;56470;47.350;8.718;2022-07-29T00:23:47;3.60;;;1.50;;
69323;SDS011;56470;47.350;8.718;2022-07-29T00:26:12;2.93;;;1.87;;
69323;SDS011;56470;47.350;8.718;2022-07-29T00:28:38;3.33;;;1.77;;
69323;SDS011;56470;47.350;8.718;2022-07-29T00:31:03;3.03;;;1.73;;
69323;SDS011;56470;47.350;8.718;2022-07-29T00:33:28;2.50;;;1.90;;
69323;SDS011;56470;47.350;8.718;2022-07-29T00:35:54;2.60;;;1.57;;
69323;SDS011;56470;47.350;8.718;2022-07-29T00:38:19;2.45;;;1.13;;
69323;SDS011;56470;47.350;8.718;2022-07-29T00:40:45;2.47;;;1.20;;
69323;SDS011;56470;47.350;8.718;2022-07-29T00:43:11;2.78;;;1.80;;
69323;SDS011;56470;47.350;8.718;2022-07-29T00:45:38;2.20;;;1.38;;
69323;SDS011;56470;47.350;8.718;2022-07-29T00:48:04;2.40;;;1.90;;
69323;SDS011;56470;47.350;8.718;2022-07-29T00:50:30;2.55;;;1.83;;
69323;SDS011;56470;47.350;8.718;2022-07-29T00:52:56;5.20;;;1.60;;
69323;SDS011;56470;47.350;8.718;2022-07-29T00:55:22;2.57;;;1.63;;
69323;SDS011;56470;47.350;8.718;2022-07-29T00:57:48;3.42;;;1.38;;
69323;SDS011;56470;47.350;8.718;2022-07-29T01:00:20;2.70;;;1.60;;
69323;SDS011;56470;47.350;8.718;2022-07-29T01:02:49;3.45;;;1.83;;
69323;SDS011;56470;47.350;8.718;2022-07-29T01:05:19;2.87;;;2.10;;
69323;SDS011;56470;47.350;8.718;2022-07-29T01:07:48;2.35;;;1.20;;
69323;SDS011;56470;47.350;8.718;2022-07-29T01:10:16;2.80;;;1.92;;
69323;SDS011;56470;47.350;8.718;2022-07-29T01:12:42;2.45;;;1.73;;
69323;SDS011;56470;47.350;8.718;2022-07-29T01:15:11;2.30;;;1.65;;
69323;SDS011;56470;47.350;8.718;2022-07-29T01:20:28;3.10;;;1.60;;
69323;SDS011;56470;47.350;8.718;2022-07-29T01:26:13;2.97;;;1.80;;
69323;SDS011;56470;47.350;8.718;2022-07-29T01:31:15;3.73;;;1.90;;
69323;SDS011;56470;47.350;8.718;2022-07-29T01:33:45;3.50;;;1.77;;
69323;SDS011;56470;47.350;8.718;2022-07-29T01:39:02;4.13;;;2.13;;
69323;SDS011;56470;47.350;8.718;2022-07-29T01:41:32;3.15;;;1.65;;
69323;SDS011;56470;47.350;8.718;2022-07-29T01:44:11;3.38;;;1.75;;
69323;SDS011;56470;47.350;8.718;2022-07-29T01:46:41;2.57;;;1.57;;
69323;SDS011;56470;47.350;8.718;2022-07-29T01:49:15;2.72;;;1.30;;
69323;SDS011;56470;47.350;8.718;2022-07-29T01:51:45;3.10;;;1.27;;
69323;SDS011;56470;47.350;8.718;2022-07-29T01:54:20;2.60;;;1.52;;
69323;SDS011;56470;47.350;8.718;2022-07-29T01:56:51;3.10;;;1.55;;
69323;SDS011;56470;47.350;8.718;2022-07-29T01:59:19;2.77;;;1.73;;
69323;SDS011;56470;47.350;8.718;2022-07-29T02:01:46;5.88;;;1.45;;
69323;SDS011;56470;47.350;8.718;2022-07-29T02:04:12;2.47;;;1.88;;
69323;SDS011;56470;47.350;8.718;2022-07-29T02:06:40;3.92;;;2.28;;
69323;SDS011;56470;47.350;8.718;2022-07-29T02:09:07;3.80;;;1.83;;
69323;SDS011;56470;47.350;8.718;2022-07-29T02:11:35;4.37;;;1.70;;
69323;SDS011;56470;47.350;8.718;2022-07-29T02:14:03;2.47;;;1.65;;
69323;SDS011;56470;47.350;8.718;2022-07-29T02:16:30;2.55;;;1.63;;
69323;SDS011;56470;47.350;8.718;2022-07-29T02:18:57;3.85;;;1.90;;
69323;SDS011;56470;47.350;8.718;2022-07-29T02:21:25;2.40;;;1.63;;
69323;SDS011;56470;47.350;8.718;2022-07-29T02:23:52;2.80;;;1.90;;
69323;SDS011;56470;47.350;8.718;2022-07-29T02:26:19;2.65;;;1.42;;
69323;SDS011;56470;47.350;8.718;2022-07-29T02:28:47;2.45;;;1.58;;
69323;SDS011;56470;47.350;8.718;2022-07-29T02:31:14;3.17;;;1.25;;
69323;SDS011;56470;47.350;8.718;2022-07-29T02:33:42;3.70;;;1.15;;
69323;SDS011;56470;47.350;8.718;2022-07-29T02:36:08;2.37;;;1.63;;
69323;SDS011;56470;47.350;8.718;2022-07-29T02:38:34;2.67;;;1.65;;
69323;SDS011;56470;47.350;8.718;2022-07-29T02:44:14;2.72;;;1.30;;
69323;SDS011;56470;47.350;8.718;2022-07-29T02:46:54;2.08;;;1.27;;
69323;SDS011;56470;47.350;8.718;2022-07-29T02:49:30;2.77;;;1.20;;
69323;SDS011;56470;47.350;8.718;2022-07-29T02:52:01;1.67;;;1.00;;
69323;SDS011;56470;47.350;8.718;2022-07-29T02:54:37;2.40;;;1.92;;
69323;SDS011;56470;47.350;8.718;2022-07-29T02:59:51;2.58;;;1.50;;
69323;SDS011;56470;47.350;8.718;2022-07-29T03:02:18;2.57;;;1.27;;
69323;SDS011;56470;47.350;8.718;2022-07-29T03:04:46;3.17;;;1.60;;
69323;SDS011;56470;47.350;8.718;2022-07-29T03:07:14;3.63;;;1.77;;
69323;SDS011;56470;47.350;8.718;2022-07-29T03:09:42;1.95;;;1.40;;
69323;SDS011;56470;47.350;8.718;2022-07-29T03:12:10;3.78;;;1.67;;
69323;SDS011;56470;47.350;8.718;2022-07-29T03:14:36;3.27;;;1.83;;
69323;SDS011;56470;47.350;8.718;2022-07-29T03:17:02;2.50;;;1.40;;
69323;SDS011;56470;47.350;8.718;2022-07-29T03:19:27;3.57;;;2.00;;
69323;SDS011;56470;47.350;8.718;2022-07-29T03:21:54;4.40;;;1.83;;
69323;SDS011;56470;47.350;8.718;2022-07-29T03:24:29;2.35;;;1.65;;
69323;SDS011;56470;47.350;8.718;2022-07-29T03:26:58;2.30;;;1.50;;
69323;SDS011;56470;47.350;8.718;2022-07-29T03:29:24;5.18;;;1.85;;
69323;SDS011;56470;47.350;8.718;2022-07-29T03:31:50;2.17;;;1.52;;
69323;SDS011;56470;47.350;8.718;2022-07-29T03:34:16;3.00;;;2.00;;
69323;SDS011;56470;47.350;8.718;2022-07-29T03:36:41;2.97;;;1.93;;
69323;SDS011;56470;47.350;8.718;2022-07-29T03:39:07;2.30;;;1.50;;
69323;SDS011;56470;47.350;8.718;2022-07-29T03:41:34;3.38;;;1.70;;
69323;SDS011;56470;47.350;8.718;2022-07-29T03:44:01;4.77;;;1.93;;
69323;SDS011;56470;47.350;8.718;2022-07-29T03:46:27;4.40;;;1.98;;
69323;SDS011;56470;47.350;8.718;2022-07-29T03:48:55;4.03;;;1.55;;
69323;SDS011;56470;47.350;8.718;2022-07-29T03:51:25;2.53;;;1.40;;
69323;SDS011;56470;47.350;8.718;2022-07-29T03:53:51;4.60;;;1.90;;
69323;SDS011;56470;47.350;8.718;2022-07-29T03:56:16;2.60;;;1.70;;
69323;SDS011;56470;47.350;8.718;2022-07-29T03:58:46;2.43;;;1.50;;
69323;SDS011;56470;47.350;8.718;2022-07-29T04:01:12;3.45;;;1.65;;
69323;SDS011;56470;47.350;8.718;2022-07-29T04:03:38;3.28;;;2.08;;
69323;SDS011;56470;47.350;8.718;2022-07-29T04:06:05;2.97;;;1.47;;
69323;SDS011;56470;47.350;8.718;2022-07-29T04:08:32;3.87;;;1.90;;
69323;SDS011;56470;47.350;8.718;2022-07-29T04:10:58;2.78;;;1.65;;
69323;SDS011;56470;47.350;8.718;2022-07-29T04:13:24;3.95;;;2.13;;
69323;SDS011;56470;47.350;8.718;2022-07-29T04:15:49;3.83;;;1.93;;
69323;SDS011;56470;47.350;8.718;2022-07-29T04:18:15;3.13;;;1.97;;
69323;SDS011;56470;47.350;8.718;2022-07-29T04:20:40;3.13;;;2.00;;
69323;SDS011;56470;47.350;8.718;2022-07-29T04:23:05;4.25;;;1.90;;
69323;SDS011;56470;47.350;8.718;2022-07-29T04:25:31;3.63;;;1.93;;
69323;SDS011;56470;47.350;8.718;2022-07-29T04:27:56;3.23;;;1.70;;
69323;SDS011;56470;47.350;8.718;2022-07-29T04:30:28;4.97;;;1.80;;
69323;SDS011;56470;47.350;8.718;2022-07-29T04:32:54;3.10;;;1.27;;
69323;SDS011;56470;47.350;8.718;2022-07-29T04:35:19;4.30;;;2.00;;
69323;SDS011;56470;47.350;8.718;2022-07-29T04:37:45;3.10;;;2.13;;
69323;SDS011;56470;47.350;8.718;2022-07-29T04:40:10;3.00;;;2.13;;
69323;SDS011;56470;47.350;8.718;2022-07-29T04:42:36;5.97;;;2.15;;
69323;SDS011;56470;47.350;8.718;2022-07-29T04:45:02;2.70;;;1.42;;
69323;SDS011;56470;47.350;8.718;2022-07-29T04:47:28;4.80;;;2.20;;
69323;SDS011;56470;47.350;8.718;2022-07-29T04:49:53;3.80;;;1.93;;
69323;SDS011;56470;47.350;8.718;2022-07-29T04:52:18;3.80;;;2.10;;
69323;SDS011;56470;47.350;8.718;2022-07-29T04:54:44;10.30;;;2.63;;
69323;SDS011;56470;47.350;8.718;2022-07-29T04:57:09;3.57;;;1.73;;
69323;SDS011;56470;47.350;8.718;2022-07-29T04:59:34;5.00;;;1.80;;
69323;SDS011;56470;47.350;8.718;2022-07-29T05:02:00;4.78;;;1.60;;
69323;SDS011;56470;47.350;8.718;2022-07-29T05:04:25;4.13;;;1.70;;
69323;SDS011;56470;47.350;8.718;2022-07-29T05:06:51;3.60;;;2.13;;
69323;SDS011;56470;47.350;8.718;2022-07-29T05:09:16;2.37;;;1.67;;
69323;SDS011;56470;47.350;8.718;2022-07-29T05:11:41;3.87;;;1.97;;
69323;SDS011;56470;47.350;8.718;2022-07-29T05:14:07;3.23;;;1.83;;
69323;SDS011;56470;47.350;8.718;2022-07-29T05:16:32;3.80;;;1.92;;
69323;SDS011;56470;47.350;8.718;2022-07-29T05:18:58;3.57;;;2.00;;
69323;SDS011;56470;47.350;8.718;2022-07-29T05:21:23;3.00;;;2.00;;
69323;SDS011;56470;47.350;8.718;2022-07-29T05:23:49;2.90;;;1.90;;
69323;SDS011;56470;47.350;8.718;2022-07-29T05:26:14;2.63;;;1.97;;
69323;SDS011;56470;47.350;8.718;2022-07-29T05:28:39;4.33;;;1.83;;
69323;SDS011;56470;47.350;8.718;2022-07-29T05:31:05;4.28;;;2.15;;
69323;SDS011;56470;47.350;8.718;2022-07-29T05:33:31;3.03;;;1.83;;
69323;SDS011;56470;47.350;8.718;2022-07-29T05:35:56;2.77;;;1.73;;
69323;SDS011;56470;47.350;8.718;2022-07-29T05:38:22;3.27;;;1.93;;
69323;SDS011;56470;47.350;8.718;2022-07-29T05:40:47;3.70;;;2.10;;
69323;SDS011;56470;47.350;8.718;2022-07-29T05:43:13;4.30;;;1.90;;
69323;SDS011;56470;47.350;8.718;2022-07-29T05:45:38;3.95;;;2.35;;
69323;SDS011;56470;47.350;8.718;2022-07-29T05:48:04;3.33;;;2.10;;
69323;SDS011;56470;47.350;8.718;2022-07-29T05:50:29;5.07;;;1.90;;
69323;SDS011;56470;47.350;8.718;2022-07-29T05:52:54;4.03;;;2.00;;
69323;SDS011;56470;47.350;8.718;2022-07-29T05:55:20;3.43;;;1.87;;
69323;SDS011;56470;47.350;8.718;2022-07-29T05:57:45;3.50;;;2.03;;
69323;SDS011;56470;47.350;8.718;2022-07-29T06:00:10;4.60;;;2.13;;
69323;SDS011;56470;47.350;8.718;2022-07-29T06:02:36;5.10;;;2.33;;
69323;SDS011;56470;47.350;8.718;2022-07-29T06:05:02;3.83;;;1.77;;
69323;SDS011;56470;47.350;8.718;2022-07-29T06:07:27;6.67;;;2.30;;
69323;SDS011;56470;47.350;8.718;2022-07-29T06:09:53;3.47;;;2.03;;
69323;SDS011;56470;47.350;8.718;2022-07-29T06:12:18;4.33;;;2.03;;
69323;SDS011;56470;47.350;8.718;2022-07-29T06:14:46;5.45;;;2.35;;
69323;SDS011;56470;47.350;8.718;2022-07-29T06:17:11;4.27;;;1.80;;
69323;SDS011;56470;47.350;8.718;2022-07-29T06:19:37;5.60;;;2.10;;
69323;SDS011;56470;47.350;8.718;2022-07-29T06:22:03;2.95;;;1.80;;
69323;SDS011;56470;47.350;8.718;2022-07-29T06:24:28;3.08;;;2.25;;
69323;SDS011;56470;47.350;8.718;2022-07-29T06:26:54;4.83;;;2.10;;
69323;SDS011;56470;47.350;8.718;2022-07-29T06:29:19;6.20;;;2.57;;
69323;SDS011;56470;47.350;8.718;2022-07-29T06:31:45;4.40;;;2.67;;
69323;SDS011;56470;47.350;8.718;2022-07-29T06:34:10;4.07;;;1.97;;
69323;SDS011;56470;47.350;8.718;2022-07-29T06:36:36;3.07;;;2.10;;
69323;SDS011;56470;47.350;8.718;2022-07-29T06:39:05;5.25;;;1.52;;
69323;SDS011;56470;47.350;8.718;2022-07-29T06:41:34;2.78;;;1.80;;
69323;SDS011;56470;47.350;8.718;2022-07-29T06:44:00;3.38;;;1.80;;
69323;SDS011;56470;47.350;8.718;2022-07-29T06:46:26;3.63;;;1.77;;
69323;SDS011;56470;47.350;8.718;2022-07-29T06:48:52;3.90;;;1.90;;
69323;SDS011;56470;47.350;8.718;2022-07-29T06:51:17;3.60;;;1.90;;
69323;SDS011;56470;47.350;8.718;2022-07-29T06:53:43;5.05;;;1.90;;
69323;SDS011;56470;47.350;8.718;2022-07-29T06:56:08;3.57;;;1.70;;
69323;SDS011;56470;47.350;8.718;2022-07-29T06:58:34;5.43;;;2.10;;
69323;SDS011;56470;47.350;8.718;2022-07-29T07:01:01;4.22;;;1.83;;
69323;SDS011;56470;47.350;8.718;2022-07-29T07:03:28;4.35;;;2.15;;
69323;SDS011;56470;47.350;8.718;2022-07-29T07:05:54;4.83;;;2.17;;
69323;SDS011;56470;47.350;8.718;2022-07-29T07:08:20;3.92;;;1.95;;
69323;SDS011;56470;47.350;8.718;2022-07-29T07:10:46;4.15;;;2.50;;
69323;SDS011;56470;47.350;8.718;2022-07-29T07:13:12;3.63;;;2.30;;
69323;SDS011;56470;47.350;8.718;2022-07-29T07:15:38;6.43;;;2.00;;
69323;SDS011;56470;47.350;8.718;2022-07-29T07:18:04;4.63;;;1.77;;
69323;SDS011;56470;47.350;8.718;2022-07-29T07:20:30;5.75;;;2.33;;
69323;SDS011;56470;47.350;8.718;2022-07-29T07:22:56;4.47;;;2.50;;
69323;SDS011;56470;47.350;8.718;2022-07-29T07:25:21;3.80;;;1.80;;
69323;SDS011;56470;47.350;8.718;2022-07-29T07:27:47;4.40;;;2.40;;
69323;SDS011;56470;47.350;8.718;2022-07-29T07:30:12;5.10;;;2.33;;
69323;SDS011;56470;47.350;8.718;2022-07-29T07:32:38;4.95;;;2.30;;
69323;SDS011;56470;47.350;8.718;2022-07-29T07:35:04;6.00;;;3.00;;
69323;SDS011;56470;47.350;8.718;2022-07-29T07:37:30;4.78;;;2.50;;
69323;SDS011;56470;47.350;8.718;2022-07-29T07:39:55;4.67;;;2.50;;
69323;SDS011;56470;47.350;8.718;2022-07-29T07:42:21;4.43;;;2.17;;
69323;SDS011;56470;47.350;8.718;2022-07-29T07:44:46;4.60;;;2.30;;
69323;SDS011;56470;47.350;8.718;2022-07-29T07:47:13;3.63;;;2.67;;
69323;SDS011;56470;47.350;8.718;2022-07-29T07:49:39;4.35;;;2.17;;
69323;SDS011;56470;47.350;8.718;2022-07-29T07:52:04;4.00;;;2.17;;
69323;SDS011;56470;47.350;8.718;2022-07-29T07:54:30;3.50;;;1.93;;
69323;SDS011;56470;47.350;8.718;2022-07-29T07:56:55;4.72;;;2.25;;
69323;SDS011;56470;47.350;8.718;2022-07-29T07:59:21;7.10;;;2.40;;
69323;SDS011;56470;47.350;8.718;2022-07-29T08:01:49;6.40;;;2.67;;
69323;SDS011;56470;47.350;8.718;2022-07-29T08:04:15;5.00;;;2.50;;
69323;SDS011;56470;47.350;8.718;2022-07-29T08:06:40;5.78;;;2.53;;
69323;SDS011;56470;47.350;8.718;2022-07-29T08:09:06;4.00;;;2.33;;
69323;SDS011;56470;47.350;8.718;2022-07-29T08:11:31;4.00;;;2.13;;
69323;SDS011;56470;47.350;8.718;2022-07-29T08:13:57;5.00;;;2.33;;
69323;SDS011;56470;47.350;8.718;2022-07-29T08:16:22;4.70;;;2.20;;
69323;SDS011;56470;47.350;8.718;2022-07-29T08:18:50;4.90;;;2.28;;
69323;SDS011;56470;47.350;8.718;2022-07-29T08:21:15;3.83;;;2.70;;
69323;SDS011;56470;47.350;8.718;2022-07-29T08:23:42;4.07;;;2.65;;
69323;SDS011;56470;47.350;8.718;2022-07-29T08:26:40;3.28;;;1.67;;
69323;SDS011;56470;47.350;8.718;2022-07-29T08:29:06;3.08;;;2.15;;
69323;SDS011;56470;47.350;8.718;2022-07-29T08:31:32;4.33;;;2.00;;
69323;SDS011;56470;47.350;8.718;2022-07-29T08:33:57;3.30;;;1.80;;
69323;SDS011;56470;47.350;8.718;2022-07-29T08:36:24;3.42;;;2.40;;
69323;SDS011;56470;47.350;8.718;2022-07-29T08:38:50;4.95;;;2.50;;
69323;SDS011;56470;47.350;8.718;2022-07-29T08:41:15;3.70;;;2.50;;
69323;SDS011;56470;47.350;8.718;2022-07-29T08:43:43;4.18;;;2.50;;
69323;SDS011;56470;47.350;8.718;2022-07-29T08:46:09;4.17;;;2.43;;
69323;SDS011;56470;47.350;8.718;2022-07-29T08:48:34;4.67;;;2.33;;
69323;SDS011;56470;47.350;8.718;2022-07-29T08:51:01;5.03;;;2.30;;
69323;SDS011;56470;47.350;8.718;2022-07-29T08:53:27;3.95;;;2.03;;
69323;SDS011;56470;47.350;8.718;2022-07-29T08:55:53;3.58;;;2.17;;
69323;SDS011;56470;47.350;8.718;2022-07-29T08:58:19;5.67;;;2.60;;
69323;SDS011;56470;47.350;8.718;2022-07-29T09:00:49;3.88;;;1.95;;
69323;SDS011;56470;47.350;8.718;2022-07-29T09:03:18;4.20;;;2.35;;
69323;SDS011;56470;47.350;8.718;2022-07-29T09:05:45;6.43;;;3.13;;
69323;SDS011;56470;47.350;8.718;2022-07-29T09:08:11;6.03;;;2.72;;
69323;SDS011;56470;47.350;8.718;2022-07-29T09:10:38;4.43;;;2.80;;
69323;SDS011;56470;47.350;8.718;2022-07-29T09:13:04;4.40;;;2.17;;
69323;SDS011;56470;47.350;8.718;2022-07-29T09:15:29;4.88;;;2.58;;
69323;SDS011;56470;47.350;8.718;2022-07-29T09:17:55;5.53;;;2.43;;
69323;SDS011;56470;47.350;8.718;2022-07-29T09:20:23;4.63;;;2.35;;
69323;SDS011;56470;47.350;8.718;2022-07-29T09:22:49;4.47;;;2.77;;
69323;SDS011;56470;47.350;8.718;2022-07-29T09:25:36;4.88;;;2.35;;
69323;SDS011;56470;47.350;8.718;2022-07-29T09:28:07;3.95;;;2.42;;
69323;SDS011;56470;47.350;8.718;2022-07-29T09:30:52;5.28;;;2.60;;
69323;SDS011;56470;47.350;8.718;2022-07-29T09:33:20;5.77;;;2.97;;
69323;SDS011;56470;47.350;8.718;2022-07-29T09:35:58;4.80;;;2.97;;
69323;SDS011;56470;47.350;8.718;2022-07-29T09:38:24;4.43;;;3.03;;
69323;SDS011;56470;47.350;8.718;2022-07-29T09:41:00;4.50;;;2.90;;
69323;SDS011;56470;47.350;8.718;2022-07-29T09:43:26;5.13;;;2.60;;
69323;SDS011;56470;47.350;8.718;2022-07-29T09:45:52;6.17;;;2.50;;
69323;SDS011;56470;47.350;8.718;2022-07-29T09:48:18;4.57;;;3.35;;
69323;SDS011;56470;47.350;8.718;2022-07-29T09:50:46;4.30;;;2.60;;
69323;SDS011;56470;47.350;8.718;2022-07-29T09:53:29;4.38;;;2.28;;
69323;SDS011;56470;47.350;8.718;2022-07-29T09:55:56;6.03;;;3.20;;
69323;SDS011;56470;47.350;8.718;2022-07-29T09:58:21;4.35;;;2.53;;
69323;SDS011;56470;47.350;8.718;2022-07-29T10:00:48;5.83;;;2.53;;
69323;SDS011;56470;47.350;8.718;2022-07-29T10:03:15;7.03;;;3.20;;
69323;SDS011;56470;47.350;8.718;2022-07-29T10:05:42;4.93;;;3.13;;
69323;SDS011;56470;47.350;8.718;2022-07-29T10:08:08;4.43;;;3.13;;
69323;SDS011;56470;47.350;8.718;2022-07-29T10:10:35;4.97;;;3.47;;
69323;SDS011;56470;47.350;8.718;2022-07-29T10:13:07;6.03;;;3.43;;
69323;SDS011;56470;47.350;8.718;2022-07-29T10:15:33;5.22;;;3.08;;
69323;SDS011;56470;47.350;8.718;2022-07-29T10:18:08;4.28;;;3.03;;
69323;SDS011;56470;47.350;8.718;2022-07-29T10:20:34;5.18;;;3.40;;
69323;SDS011;56470;47.350;8.718;2022-07-29T10:23:00;6.28;;;3.75;;
69323;SDS011;56470;47.350;8.718;2022-07-29T10:25:26;8.27;;;3.30;;
69323;SDS011;56470;47.350;8.718;2022-07-29T10:27:51;5.33;;;3.30;;
69323;SDS011;56470;47.350;8.718;2022-07-29T10:30:18;4.75;;;3.17;;
69323;SDS011;56470;47.350;8.718;2022-07-29T10:35:40;4.88;;;2.80;;
69323;SDS011;56470;47.350;8.718;2022-07-29T10:41:24;6.10;;;3.00;;
69323;SDS011;56470;47.350;8.718;2022-07-29T10:44:17;6.32;;;2.50;;
69323;SDS011;56470;47.350;8.718;2022-07-29T10:46:44;9.95;;;2.90;;
69323;SDS011;56470;47.350;8.718;2022-07-29T10:57:11;5.07;;;2.97;;
69323;SDS011;56470;47.350;8.718;2022-07-29T11:07:31;8.17;;;2.80;;
69323;SDS011;56470;47.350;8.718;2022-07-29T11:15:02;5.07;;;2.60;;
69323;SDS011;56470;47.350;8.718;2022-07-29T11:17:28;4.95;;;2.88;;
69323;SDS011;56470;47.350;8.718;2022-07-29T11:22:57;6.88;;;2.78;;
69323;SDS011;56470;47.350;8.718;2022-07-29T11:25:22;3.70;;;2.30;;
69323;SDS011;56470;47.350;8.718;2022-07-29T11:27:48;3.50;;;2.40;;
69323;SDS011;56470;47.350;8.718;2022-07-29T11:30:14;4.28;;;2.60;;
69323;SDS011;56470;47.350;8.718;2022-07-29T11:32:40;4.60;;;2.60;;
69323;SDS011;56470;47.350;8.718;2022-07-29T11:37:35;4.15;;;2.95;;
69323;SDS011;56470;47.350;8.718;2022-07-29T11:42:36;5.35;;;2.75;;
69323;SDS011;56470;47.350;8.718;2022-07-29T11:45:06;4.10;;;2.75;;
69323;SDS011;56470;47.350;8.718;2022-07-29T11:47:48;4.20;;;2.30;;
69323;SDS011;56470;47.350;8.718;2022-07-29T11:50:17;5.50;;;2.40;;
69323;SDS011;56470;47.350;8.718;2022-07-29T11:52:51;3.47;;;2.70;;
69323;SDS011;56470;47.350;8.718;2022-07-29T11:55:17;5.33;;;2.90;;
69323;SDS011;56470;47.350;8.718;2022-07-29T11:57:51;6.23;;;3.30;;
69323;SDS011;56470;47.350;8.718;2022-07-29T12:00:25;4.70;;;3.05;;
69323;SDS011;56470;47.350;8.718;2022-07-29T12:02:55;5.63;;;2.83;;
69323;SDS011;56470;47.350;8.718;2022-07-29T12:05:29;4.45;;;2.95;;
69323;SDS011;56470;47.350;8.718;2022-07-29T12:08:04;5.35;;;2.70;;
69323;SDS011;56470;47.350;8.718;2022-07-29T12:10:37;5.07;;;3.03;;
69323;SDS011;56470;47.350;8.718;2022-07-29T12:13:03;5.50;;;3.33;;
69323;SDS011;56470;47.350;8.718;2022-07-29T12:15:29;3.57;;;2.23;;
69323;SDS011;56470;47.350;8.718;2022-07-29T12:17:54;4.70;;;3.30;;
69323;SDS011;56470;47.350;8.718;2022-07-29T12:20:24;5.90;;;3.03;;
69323;SDS011;56470;47.350;8.718;2022-07-29T12:22:53;4.95;;;3.40;;
69323;SDS011;56470;47.350;8.718;2022-07-29T12:25:19;5.00;;;2.75;;
69323;SDS011;56470;47.350;8.718;2022-07-29T12:27:47;4.03;;;2.53;;
69323;SDS011;56470;47.350;8.718;2022-07-29T12:30:14;4.82;;;2.63;;
69323;SDS011;56470;47.350;8.718;2022-07-29T12:32:42;4.13;;;3.00;;
69323;SDS011;56470;47.350;8.718;2022-07-29T12:37:43;5.57;;;3.45;;
69323;SDS011;56470;47.350;8.718;2022-07-29T12:40:10;7.35;;;2.95;;
69323;SDS011;56470;47.350;8.718;2022-07-29T12:42:38;4.13;;;3.22;;
69323;SDS011;56470;47.350;8.718;2022-07-29T12:45:04;5.50;;;3.22;;
69323;SDS011;56470;47.350;8.718;2022-07-29T12:47:30;5.20;;;3.30;;
69323;SDS011;56470;47.350;8.718;2022-07-29T12:50:09;6.38;;;3.17;;
69323;SDS011;56470;47.350;8.718;2022-07-29T12:52:36;4.97;;;2.67;;
69323;SDS011;56470;47.350;8.718;2022-07-29T12:55:02;4.13;;;2.77;;
69323;SDS011;56470;47.350;8.718;2022-07-29T12:57:28;5.45;;;3.00;;
69323;SDS011;56470;47.350;8.718;2022-07-29T13:00:13;4.37;;;3.00;;
69323;SDS011;56470;47.350;8.718;2022-07-29T13:02:40;7.30;;;3.70;;
69323;SDS011;56470;47.350;8.718;2022-07-29T13:05:06;4.05;;;2.92;;
69323;SDS011;56470;47.350;8.718;2022-07-29T13:07:34;5.07;;;2.75;;
69323;SDS011;56470;47.350;8.718;2022-07-29T13:12:41;8.43;;;3.90;;
69323;SDS011;56470;47.350;8.718;2022-07-29T13:15:27;5.18;;;3.17;;
69323;SDS011;56470;47.350;8.718;2022-07-29T13:17:52;6.17;;;3.07;;
69323;SDS011;56470;47.350;8.718;2022-07-29T13:20:18;5.32;;;3.22;;
69323;SDS011;56470;47.350;8.718;2022-07-29T13:22:47;6.03;;;3.50;;
69323;SDS011;56470;47.350;8.718;2022-07-29T13:25:13;4.95;;;3.50;;
69323;SDS011;56470;47.350;8.718;2022-07-29T13:27:39;5.00;;;3.72;;
69323;SDS011;56470;47.350;8.718;2022-07-29T13:30:07;9.83;;;3.70;;
69323;SDS011;56470;47.350;8.718;2022-07-29T13:32:34;7.82;;;3.28;;
69323;SDS011;56470;47.350;8.718;2022-07-29T13:35:02;5.25;;;3.25;;
69323;SDS011;56470;47.350;8.718;2022-07-29T13:37:30;4.75;;;3.20;;
69323;SDS011;56470;47.350;8.718;2022-07-29T13:39:57;5.07;;;3.38;;
69323;SDS011;56470;47.350;8.718;2022-07-29T13:42:24;6.10;;;3.27;;
69323;SDS011;56470;47.350;8.718;2022-07-29T13:44:49;6.75;;;4.18;;
69323;SDS011;56470;47.350;8.718;2022-07-29T13:47:16;6.25;;;3.92;;
69323;SDS011;56470;47.350;8.718;2022-07-29T13:49:42;7.55;;;4.38;;
69323;SDS011;56470;47.350;8.718;2022-07-29T13:52:08;7.90;;;3.77;;
69323;SDS011;56470;47.350;8.718;2022-07-29T13:54:33;5.77;;;3.77;;
69323;SDS011;56470;47.350;8.718;2022-07-29T13:57:02;5.75;;;4.10;;
69323;SDS011;56470;47.350;8.718;2022-07-29T13:59:28;5.68;;;3.65;;
69323;SDS011;56470;47.350;8.718;2022-07-29T14:01:53;7.93;;;3.77;;
69323;SDS011;56470;47.350;8.718;2022-07-29T14:04:19;14.57;;;5.03;;
69323;SDS011;56470;47.350;8.718;2022-07-29T14:06:44;6.67;;;2.90;;
69323;SDS011;56470;47.350;8.718;2022-07-29T14:09:09;4.90;;;2.80;;
69323;SDS011;56470;47.350;8.718;2022-07-29T14:11:35;4.80;;;2.67;;
69323;SDS011;56470;47.350;8.718;2022-07-29T14:14:00;4.40;;;3.03;;
69323;SDS011;56470;47.350;8.718;2022-07-29T14:16:26;4.88;;;2.90;;
69323;SDS011;56470;47.350;8.718;2022-07-29T14:18:52;5.07;;;2.80;;
69323;SDS011;56470;47.350;8.718;2022-07-29T14:21:17;7.67;;;3.53;;
69323;SDS011;56470;47.350;8.718;2022-07-29T14:23:43;8.07;;;3.70;;
69323;SDS011;56470;47.350;8.718;2022-07-29T14:26:08;6.95;;;3.53;;
69323;SDS011;56470;47.350;8.718;2022-07-29T14:28:34;5.60;;;3.70;;
69323;SDS011;56470;47.350;8.718;2022-07-29T14:30:59;7.47;;;4.17;;
69323;SDS011;56470;47.350;8.718;2022-07-29T14:33:28;7.63;;;3.83;;
69323;SDS011;56470;47.350;8.718;2022-07-29T14:35:53;9.88;;;4.55;;
69323;SDS011;56470;47.350;8.718;2022-07-29T14:38:18;6.77;;;4.17;;
69323;SDS011;56470;47.350;8.718;2022-07-29T14:40:44;8.13;;;4.00;;
69323;SDS011;56470;47.350;8.718;2022-07-29T14:43:09;6.47;;;4.60;;
69323;SDS011;56470;47.350;8.718;2022-07-29T14:45:34;6.63;;;4.47;;
69323;SDS011;56470;47.350;8.718;2022-07-29T14:48:00;6.30;;;4.40;;
69323;SDS011;56470;47.350;8.718;2022-07-29T14:50:25;6.23;;;4.23;;
69323;SDS011;56470;47.350;8.718;2022-07-29T14:52:51;6.93;;;4.82;;
69323;SDS011;56470;47.350;8.718;2022-07-29T14:55:17;8.57;;;4.73;;
69323;SDS011;56470;47.350;8.718;2022-07-29T14:57:42;8.25;;;4.95;;
69323;SDS011;56470;47.350;8.718;2022-07-29T15:00:08;6.73;;;4.80;;
69323;SDS011;56470;47.350;8.718;2022-07-29T15:02:35;9.43;;;4.88;;
69323;SDS011;56470;47.350;8.718;2022-07-29T15:05:00;9.07;;;5.23;;
69323;SDS011;56470;47.350;8.718;2022-07-29T15:07:25;8.65;;;4.82;;
69323;SDS011;56470;47.350;8.718;2022-07-29T15:09:51;6.50;;;4.77;;
69323;SDS011;56470;47.350;8.718;2022-07-29T15:12:16;8.73;;;5.10;;
69323;SDS011;56470;47.350;8.718;2022-07-29T15:14:42;7.90;;;5.07;;
69323;SDS011;56470;47.350;8.718;2022-07-29T15:17:07;7.70;;;5.10;;
69323;SDS011;56470;47.350;8.718;2022-07-29T15:19:33;8.13;;;5.00;;
69323;SDS011;56470;47.350;8.718;2022-07-29T15:21:58;9.40;;;5.97;;
69323;SDS011;56470;47.350;8.718;2022-07-29T15:24:23;8.85;;;5.88;;
69323;SDS011;56470;47.350;8.718;2022-07-29T15:26:49;8.93;;;5.80;;
69323;SDS011;56470;47.350;8.718;2022-07-29T15:29:14;8.10;;;5.53;;
69323;SDS011;56470;47.350;8.718;2022-07-29T15:31:40;8.77;;;5.50;;
69323;SDS011;56470;47.350;8.718;2022-07-29T15:34:05;9.95;;;5.65;;
69323;SDS011;56470;47.350;8.718;2022-07-29T15:36:31;10.50;;;6.20;;
69323;SDS011;56470;47.350;8.718;2022-07-29T15:38:56;8.63;;;6.57;;
69323;SDS011;56470;47.350;8.718;2022-07-29T15:41:22;9.20;;;5.78;;
69323;SDS011;56470;47.350;8.718;2022-07-29T15:43:47;9.47;;;6.13;;
69323;SDS011;56470;47.350;8.718;2022-07-29T15:46:14;10.38;;;7.00;;